createdAt,value
2023-05-15T00:00:06.651Z,2.78
2023-05-15T00:02:08.211Z,2.30
2023-05-15T00:04:09.832Z,2.78
2023-05-15T00:06:11.330Z,3.25
2023-05-15T00:08:12.792Z,3.50
2023-05-15T00:10:14.307Z,4.20
2023-05-15T00:12:15.900Z,2.30
2023-05-15T00:14:17.365Z,2.35
2023-05-15T00:18:25.705Z,2.00
2023-05-15T00:20:27.130Z,2.42
2023-05-15T00:22:28.586Z,1.88
2023-05-15T00:26:34.134Z,2.30
2023-05-15T00:28:38.707Z,2.35
2023-05-15T00:30:43.233Z,2.00
2023-05-15T00:32:44.779Z,2.78
2023-05-15T00:34:46.382Z,2.20
2023-05-15T00:36:50.769Z,2.20
2023-05-15T00:40:56.245Z,3.42
2023-05-15T00:42:58.308Z,2.45
2023-05-15T00:45:19.395Z,3.03
2023-05-15T00:47:24.063Z,2.17
2023-05-15T00:49:27.635Z,3.33
2023-05-15T00:51:29.304Z,2.88
2023-05-15T00:53:33.771Z,3.08
2023-05-15T00:55:35.976Z,3.17
2023-05-15T00:57:41.772Z,3.00
2023-05-15T00:59:43.803Z,2.90
2023-05-15T01:01:48.248Z,3.13
2023-05-15T01:03:49.733Z,3.60
2023-05-15T01:05:51.585Z,3.60
2023-05-15T01:08:22.917Z,2.97
2023-05-15T01:10:35.548Z,3.33
2023-05-15T01:12:50.444Z,2.95
2023-05-15T01:15:03.943Z,3.65
2023-05-15T01:17:13.190Z,3.83
2023-05-15T01:19:40.230Z,3.70
2023-05-15T01:22:09.203Z,3.80
2023-05-15T01:24:32.436Z,4.20
2023-05-15T01:27:01.710Z,3.97
2023-05-15T01:29:14.702Z,4.68
2023-05-15T01:31:24.834Z,3.80
2023-05-15T01:33:43.971Z,4.05
2023-05-15T01:35:56.748Z,4.25
2023-05-15T01:38:13.622Z,4.10
2023-05-15T01:40:19.781Z,4.13
2023-05-15T01:42:27.580Z,4.15
2023-05-15T01:44:30.851Z,4.60
2023-05-15T01:46:34.960Z,4.63
2023-05-15T01:50:38.881Z,4.60
2023-05-15T01:52:41.727Z,5.55
2023-05-15T01:54:43.869Z,5.22
2023-05-15T01:56:46.023Z,5.05
2023-05-15T01:58:48.248Z,5.78
2023-05-15T02:00:52.772Z,6.60
2023-05-15T02:02:57.785Z,5.65
2023-05-15T02:04:59.713Z,6.13
2023-05-15T02:07:04.494Z,6.03
2023-05-15T02:09:06.609Z,5.65
2023-05-15T02:11:08.557Z,4.93
2023-05-15T02:13:10.189Z,5.95
2023-05-15T02:15:12.025Z,5.63
2023-05-15T02:17:32.487Z,5.95
2023-05-15T02:19:36.655Z,5.38
2023-05-15T02:21:38.102Z,6.20
2023-05-15T02:23:45.832Z,6.13
2023-05-15T02:25:58.484Z,5.00
2023-05-15T02:28:05.233Z,5.80
2023-05-15T02:30:09.604Z,6.60
2023-05-15T02:32:26.599Z,5.90
2023-05-15T02:34:46.040Z,5.93
2023-05-15T02:36:54.451Z,6.28
2023-05-15T02:39:15.952Z,5.75
2023-05-15T02:41:21.955Z,5.93
2023-05-15T02:43:25.101Z,5.50
2023-05-15T02:45:31.220Z,4.85
2023-05-15T02:47:33.473Z,6.05
2023-05-15T02:49:35.636Z,5.70
2023-05-15T02:51:37.287Z,5.05
2023-05-15T02:53:42.280Z,5.00
2023-05-15T02:55:46.454Z,5.13
2023-05-15T02:58:06.708Z,4.43
2023-05-15T03:00:13.486Z,4.78
2023-05-15T03:02:17.826Z,4.25
2023-05-15T03:04:19.391Z,4.13
2023-05-15T03:06:20.985Z,3.40
2023-05-15T03:08:22.389Z,3.25
2023-05-15T03:12:30.755Z,2.65
2023-05-15T03:14:35.225Z,1.98
2023-05-15T03:16:39.662Z,1.95
2023-05-15T03:18:42.253Z,1.98
2023-05-15T03:20:43.722Z,2.22
2023-05-15T03:24:51.928Z,2.72
2023-05-15T03:26:55.958Z,1.88
2023-05-15T03:29:01.109Z,1.88
2023-05-15T03:31:04.853Z,1.60
2023-05-15T03:33:25.139Z,1.88
2023-05-15T03:35:27.161Z,1.98
2023-05-15T03:37:28.953Z,1.65
2023-05-15T03:39:30.406Z,2.03
2023-05-15T03:43:36.065Z,2.13
2023-05-15T03:45:38.725Z,1.58
2023-05-15T03:47:43.171Z,1.90
2023-05-15T03:49:45.694Z,1.73
2023-05-15T03:51:47.177Z,2.10
2023-05-15T03:53:48.704Z,1.73
2023-05-15T03:57:54.517Z,1.92
2023-05-15T03:59:56.060Z,2.33
2023-05-15T04:02:04.814Z,2.00
2023-05-15T04:04:09.591Z,2.00
2023-05-15T04:06:13.586Z,2.78
2023-05-15T04:08:15.176Z,2.53
2023-05-15T04:10:35.235Z,2.83
2023-05-15T04:12:38.307Z,2.78
2023-05-15T04:14:41.733Z,2.42
2023-05-15T04:16:46.977Z,3.78
2023-05-15T04:18:48.483Z,3.65
2023-05-15T04:20:54.289Z,3.20
2023-05-15T04:22:59.665Z,2.70
2023-05-15T04:25:05.291Z,3.17
2023-05-15T04:27:27.532Z,3.13
2023-05-15T04:29:32.393Z,2.35
2023-05-15T04:31:38.383Z,3.28
2023-05-15T04:33:43.623Z,3.60
2023-05-15T04:35:50.201Z,3.08
2023-05-15T04:37:52.062Z,2.70
2023-05-15T04:39:53.581Z,2.65
2023-05-15T04:42:13.456Z,2.40
2023-05-15T04:44:17.776Z,2.33
2023-05-15T04:48:23.386Z,3.05
2023-05-15T04:50:28.340Z,3.15
2023-05-15T04:52:30.026Z,3.30
2023-05-15T04:54:37.526Z,3.53
2023-05-15T04:56:58.234Z,3.67
2023-05-15T04:59:02.902Z,3.33
2023-05-15T05:01:04.755Z,3.70
2023-05-15T05:03:06.827Z,4.28
2023-05-15T05:05:10.102Z,3.78
2023-05-15T05:07:15.902Z,3.83
2023-05-15T05:09:20.309Z,3.58
2023-05-15T05:11:23.116Z,3.45
2023-05-15T05:13:27.853Z,3.42
2023-05-15T05:15:49.280Z,3.65
2023-05-15T05:17:51.394Z,3.67
2023-05-15T05:19:53.040Z,3.10
2023-05-15T05:21:58.602Z,3.80
2023-05-15T05:24:00.270Z,3.15
2023-05-15T05:26:05.352Z,3.28
2023-05-15T05:28:10.725Z,3.35
2023-05-15T05:30:12.448Z,2.33
2023-05-15T05:32:16.790Z,2.60
2023-05-15T05:34:21.694Z,2.45
2023-05-15T05:36:24.958Z,2.70
2023-05-15T05:38:31.271Z,3.22
2023-05-15T05:40:36.026Z,2.22
2023-05-15T05:42:40.658Z,1.80
2023-05-15T05:44:49.134Z,2.15
2023-05-15T05:46:53.052Z,3.70
2023-05-15T05:48:57.844Z,1.88
2023-05-15T05:51:00.849Z,2.08
2023-05-15T05:53:04.115Z,1.90
2023-05-15T05:55:09.041Z,3.38
2023-05-15T05:57:11.040Z,1.52
2023-05-15T05:59:12.849Z,2.28
2023-05-15T06:01:18.088Z,1.55
2023-05-15T06:03:23.870Z,1.30
2023-05-15T06:05:29.598Z,2.10
2023-05-15T06:07:32.820Z,1.23
2023-05-15T06:09:36.634Z,1.40
2023-05-15T06:11:41.264Z,1.90
2023-05-15T06:13:45.368Z,1.55
2023-05-15T06:15:47.381Z,2.35
2023-05-15T06:17:51.892Z,1.40
2023-05-15T06:19:54.214Z,1.70
2023-05-15T06:21:58.185Z,1.42
2023-05-15T06:23:59.730Z,1.63
2023-05-15T06:26:04.440Z,2.35
2023-05-15T06:28:08.617Z,1.55
2023-05-15T06:30:13.232Z,1.98
2023-05-15T06:32:14.714Z,3.28
2023-05-15T06:34:19.027Z,3.53
2023-05-15T06:36:23.462Z,1.98
2023-05-15T06:38:28.025Z,1.70
2023-05-15T06:40:32.489Z,1.30
2023-05-15T06:42:34.054Z,2.17
2023-05-15T06:44:35.953Z,1.38
2023-05-15T06:46:37.513Z,1.15
2023-05-15T06:48:41.985Z,1.75
2023-05-15T06:50:43.465Z,1.35
2023-05-15T06:52:45.095Z,1.60
2023-05-15T06:54:47.095Z,1.92
2023-05-15T06:56:51.207Z,1.65
2023-05-15T06:58:52.705Z,1.30
2023-05-15T07:00:58.156Z,1.55
2023-05-15T07:03:04.068Z,1.65
2023-05-15T07:05:06.896Z,1.35
2023-05-15T07:07:11.150Z,1.08
2023-05-15T07:09:15.683Z,1.70
2023-05-15T07:11:19.963Z,1.58
2023-05-15T07:13:21.536Z,1.35
2023-05-15T07:15:22.980Z,1.55
2023-05-15T07:17:31.339Z,1.00
2023-05-15T07:19:40.632Z,1.55
2023-05-15T07:21:46.794Z,1.98
2023-05-15T07:23:52.445Z,0.95
2023-05-15T07:25:58.389Z,1.30
2023-05-15T07:28:04.950Z,1.00
2023-05-15T07:32:10.770Z,2.00
2023-05-15T07:34:14.707Z,1.40
2023-05-15T07:38:24.231Z,1.33
2023-05-15T07:40:28.222Z,1.10
2023-05-15T07:42:50.421Z,1.48
2023-05-15T07:44:54.452Z,1.10
2023-05-15T07:47:00.587Z,1.00
2023-05-15T07:49:07.013Z,1.75
2023-05-15T07:51:11.422Z,1.83
2023-05-15T07:53:13.527Z,2.22
2023-05-15T07:55:17.908Z,1.65
2023-05-15T07:57:22.242Z,1.50
2023-05-15T07:59:42.407Z,1.25
2023-05-15T08:01:44.070Z,1.30
2023-05-15T08:03:45.580Z,1.00
2023-05-15T08:05:47.265Z,1.65
2023-05-15T08:07:48.925Z,1.60
2023-05-15T08:09:53.042Z,1.40
2023-05-15T08:12:14.455Z,1.30
2023-05-15T08:14:16.148Z,1.20
2023-05-15T08:16:18.459Z,1.33
2023-05-15T08:18:20.114Z,1.75
2023-05-15T08:20:21.778Z,1.42
2023-05-15T08:22:23.241Z,1.58
2023-05-15T08:24:27.618Z,1.20
2023-05-15T08:26:33.128Z,1.67
2023-05-15T08:28:43.531Z,1.27
2023-05-15T08:30:48.016Z,1.40
2023-05-15T08:32:49.801Z,1.45
2023-05-15T08:34:58.104Z,1.58
2023-05-15T08:36:59.993Z,2.40
2023-05-15T08:39:04.222Z,1.75
2023-05-15T08:41:12.181Z,1.40
2023-05-15T08:43:15.583Z,1.23
2023-05-15T08:45:17.332Z,1.13
2023-05-15T08:47:40.122Z,1.10
2023-05-15T08:50:04.481Z,1.23
2023-05-15T08:52:06.155Z,1.20
2023-05-15T08:54:26.243Z,0.75
2023-05-15T08:56:30.995Z,1.17
2023-05-15T08:58:35.863Z,1.08
2023-05-15T09:00:37.771Z,0.93
2023-05-15T09:02:59.856Z,1.13
2023-05-15T09:05:02.493Z,1.33
2023-05-15T09:07:04.266Z,0.93
2023-05-15T09:09:06.041Z,0.98
2023-05-15T09:11:10.617Z,0.80
2023-05-15T09:13:14.941Z,0.88
2023-05-15T09:15:22.484Z,0.90
2023-05-15T09:17:26.663Z,0.80
2023-05-15T09:19:28.180Z,1.00
2023-05-15T09:21:48.679Z,0.80
2023-05-15T09:24:14.796Z,0.90
2023-05-15T09:26:34.678Z,1.63
2023-05-15T09:28:36.214Z,1.13
2023-05-15T09:30:43.684Z,1.80
2023-05-15T09:32:48.464Z,0.90
2023-05-15T09:34:50.005Z,1.17
2023-05-15T09:36:51.441Z,1.08
2023-05-15T09:38:58.141Z,1.13
2023-05-15T09:41:03.917Z,1.25
2023-05-15T09:43:05.610Z,1.02
2023-05-15T09:45:27.227Z,1.13
2023-05-15T09:49:36.410Z,1.00
2023-05-15T09:51:58.532Z,1.50
2023-05-15T09:54:00.154Z,1.75
2023-05-15T09:56:04.430Z,1.23
2023-05-15T09:58:12.946Z,1.10
2023-05-15T10:00:19.539Z,1.60
2023-05-15T10:02:24.666Z,1.30
2023-05-15T10:04:33.964Z,1.10
2023-05-15T10:06:43.205Z,1.10
2023-05-15T10:08:51.024Z,0.90
2023-05-15T10:10:59.324Z,1.40
2023-05-15T10:13:05.806Z,0.80
2023-05-15T10:15:07.490Z,0.95
2023-05-15T10:17:09.976Z,1.27
2023-05-15T10:19:14.243Z,0.80
2023-05-15T10:21:20.221Z,1.58
2023-05-15T10:23:22.500Z,0.90
2023-05-15T10:25:28.072Z,0.90
2023-05-15T10:27:32.417Z,1.15
2023-05-15T10:29:37.458Z,1.02
2023-05-15T10:31:42.285Z,1.00
2023-05-15T10:33:48.774Z,0.93
2023-05-15T10:35:52.892Z,1.08
2023-05-15T10:37:58.958Z,1.52
2023-05-15T10:40:04.025Z,1.33
2023-05-15T10:42:06.445Z,0.98
2023-05-15T10:44:08.172Z,1.17
2023-05-15T10:46:10.869Z,0.70
2023-05-15T10:48:15.999Z,0.93
2023-05-15T10:50:20.533Z,0.98
2023-05-15T10:52:41.802Z,1.40
2023-05-15T10:54:44.504Z,0.50
2023-05-15T10:56:52.010Z,1.42
2023-05-15T10:58:55.372Z,0.88
2023-05-15T11:00:59.862Z,1.38
2023-05-15T11:03:04.988Z,0.80
2023-05-15T11:05:08.974Z,0.80
2023-05-15T11:07:14.468Z,0.70
2023-05-15T11:09:27.479Z,0.90
2023-05-15T11:11:51.328Z,0.98
2023-05-15T11:14:12.415Z,1.27
2023-05-15T11:16:14.592Z,0.90
2023-05-15T11:18:20.799Z,0.90
2023-05-15T11:20:33.578Z,1.10
2023-05-15T11:22:42.203Z,0.93
2023-05-15T11:24:49.483Z,1.00
2023-05-15T11:27:03.747Z,1.00
2023-05-15T11:29:17.835Z,1.25
2023-05-15T11:31:29.528Z,1.02
2023-05-15T11:33:35.340Z,1.02
2023-05-15T11:36:03.224Z,1.45
2023-05-15T11:38:10.940Z,0.90
2023-05-15T11:40:19.800Z,1.23
2023-05-15T11:42:21.259Z,1.30
2023-05-15T11:44:23.164Z,1.00
2023-05-15T11:46:25.688Z,0.95
2023-05-15T11:48:37.935Z,0.95
2023-05-15T11:50:40.008Z,1.08
2023-05-15T11:52:41.587Z,0.95
2023-05-15T11:55:01.624Z,1.48
2023-05-15T11:57:07.327Z,0.90
2023-05-15T11:59:17.674Z,1.10
2023-05-15T12:01:47.226Z,0.88
2023-05-15T12:03:52.087Z,1.80
2023-05-15T12:06:00.299Z,1.10
2023-05-15T12:08:23.849Z,0.98
2023-05-15T12:10:45.533Z,0.70
2023-05-15T12:12:48.478Z,0.90
2023-05-15T12:15:09.659Z,7.45
2023-05-15T12:17:11.141Z,0.85
2023-05-15T12:19:31.881Z,1.13
2023-05-15T12:21:43.052Z,0.90
2023-05-15T12:24:03.386Z,0.98
2023-05-15T12:26:08.925Z,0.90
2023-05-15T12:28:12.028Z,1.23
2023-05-15T12:30:16.958Z,1.17
2023-05-15T12:32:18.569Z,0.80
2023-05-15T12:34:24.698Z,1.35
2023-05-15T12:36:30.152Z,1.08
2023-05-15T12:38:34.264Z,1.08
2023-05-15T12:40:43.319Z,1.17
2023-05-15T12:42:53.280Z,0.80
2023-05-15T12:44:57.351Z,1.15
2023-05-15T12:47:00.463Z,0.52
2023-05-15T12:49:04.517Z,0.60
2023-05-15T12:51:09.249Z,0.85
2023-05-15T12:53:15.647Z,0.80
2023-05-15T12:55:26.996Z,0.82
2023-05-15T12:57:28.570Z,0.75
2023-05-15T12:59:32.866Z,1.00
2023-05-15T13:01:37.427Z,0.50
2023-05-15T13:03:42.870Z,1.00
2023-05-15T13:06:03.643Z,1.67
2023-05-15T13:08:07.514Z,1.00
2023-05-15T13:10:29.657Z,0.85
2023-05-15T13:12:42.573Z,0.98
2023-05-15T13:14:44.030Z,1.00
2023-05-15T13:16:46.851Z,0.95
2023-05-15T13:18:48.652Z,1.05
2023-05-15T13:20:53.994Z,0.80
2023-05-15T13:22:55.919Z,0.93
2023-05-15T13:24:57.356Z,1.08
2023-05-15T13:27:00.463Z,0.80
2023-05-15T13:29:04.704Z,1.08
2023-05-15T13:31:08.210Z,0.70
2023-05-15T13:33:14.407Z,1.00
2023-05-15T13:35:21.218Z,0.65
2023-05-15T13:37:25.752Z,0.88
2023-05-15T13:39:29.313Z,1.42
2023-05-15T13:41:32.830Z,0.88
2023-05-15T13:43:35.713Z,0.60
2023-05-15T13:45:38.430Z,0.80
2023-05-15T13:47:44.810Z,0.63
2023-05-15T13:49:50.967Z,0.70
2023-05-15T13:51:54.601Z,0.98
2023-05-15T13:53:58.267Z,0.82
2023-05-15T13:56:04.650Z,0.82
2023-05-15T13:58:10.580Z,1.40
2023-05-15T14:00:13.489Z,0.95
2023-05-15T14:02:18.110Z,1.38
2023-05-15T14:04:22.220Z,1.13
2023-05-15T14:06:23.756Z,0.90
2023-05-15T14:08:25.211Z,0.55
2023-05-15T14:10:29.566Z,1.05
2023-05-15T14:12:33.837Z,0.45
2023-05-15T14:14:38.187Z,0.63
2023-05-15T14:16:39.664Z,0.40
2023-05-15T14:18:41.218Z,0.90
2023-05-15T14:20:42.675Z,1.50
2023-05-15T14:22:46.824Z,0.90
2023-05-15T14:24:48.281Z,0.70
2023-05-15T14:26:49.749Z,1.52
2023-05-15T14:28:53.950Z,0.65
2023-05-15T14:30:55.483Z,0.50
2023-05-15T14:32:57.016Z,0.60
2023-05-15T14:35:00.060Z,0.70
2023-05-15T14:37:04.813Z,0.65
2023-05-15T14:39:06.355Z,0.57
2023-05-15T14:41:10.494Z,0.70
2023-05-15T14:43:14.873Z,0.50
2023-05-15T14:45:16.640Z,0.30
2023-05-15T14:47:25.335Z,0.60
2023-05-15T14:49:29.810Z,0.88
2023-05-15T14:51:31.606Z,0.50
2023-05-15T14:53:36.020Z,0.30
2023-05-15T14:55:56.287Z,0.68
2023-05-15T14:58:16.035Z,0.82
2023-05-15T15:00:36.249Z,0.68
2023-05-15T15:02:40.455Z,0.50
2023-05-15T15:04:44.931Z,0.50
2023-05-15T15:06:49.480Z,0.50
2023-05-15T15:08:51.104Z,0.38
2023-05-15T15:10:52.548Z,0.57
2023-05-15T15:12:54.284Z,0.50
2023-05-15T15:14:55.883Z,0.60
2023-05-15T15:16:59.953Z,0.50
2023-05-15T15:19:04.123Z,0.68
2023-05-15T15:21:05.638Z,0.57
2023-05-15T15:23:10.008Z,0.43
2023-05-15T15:25:14.356Z,0.75
2023-05-15T15:27:18.617Z,0.40
2023-05-15T15:29:23.201Z,0.82
2023-05-15T15:31:30.497Z,0.52
2023-05-15T15:33:34.844Z,0.65
2023-05-15T15:35:39.486Z,1.10
2023-05-15T15:37:59.472Z,0.50
2023-05-15T15:40:01.508Z,0.60
2023-05-15T15:42:05.804Z,0.70
2023-05-15T15:44:07.293Z,0.47
2023-05-15T15:46:27.567Z,0.40
2023-05-15T15:48:29.396Z,0.52
2023-05-15T15:50:30.888Z,0.85
2023-05-15T15:52:35.381Z,0.90
2023-05-15T15:54:37.677Z,0.90
2023-05-15T15:56:40.273Z,0.40
2023-05-15T15:58:41.731Z,1.10
2023-05-15T16:00:46.481Z,0.80
2023-05-15T16:02:50.854Z,0.50
2023-05-15T16:04:55.077Z,0.30
2023-05-15T16:06:59.170Z,0.70
2023-05-15T16:09:00.716Z,0.60
2023-05-15T16:11:05.163Z,0.95
2023-05-15T16:13:06.582Z,0.60
2023-05-15T16:15:21.824Z,0.60
2023-05-15T16:17:25.320Z,0.75
2023-05-15T16:19:26.793Z,0.40
2023-05-15T16:21:31.248Z,0.38
2023-05-15T16:23:34.114Z,0.93
2023-05-15T16:25:38.568Z,0.50
2023-05-15T16:27:43.035Z,0.63
2023-05-15T16:29:44.566Z,0.60
2023-05-15T16:31:46.996Z,0.32
2023-05-15T16:33:50.352Z,0.30
2023-05-15T16:35:54.498Z,0.80
2023-05-15T16:37:58.606Z,0.85
2023-05-15T16:40:03.995Z,0.40
2023-05-15T16:42:07.915Z,0.73
2023-05-15T16:44:15.230Z,0.60
2023-05-15T16:46:25.344Z,0.47
2023-05-15T16:48:36.253Z,0.40
2023-05-15T16:50:44.276Z,0.40
2023-05-15T16:52:56.389Z,0.30
2023-05-15T16:55:08.978Z,0.50
2023-05-15T16:57:17.904Z,0.60
2023-05-15T16:59:30.878Z,0.50
2023-05-15T17:01:40.472Z,0.77
2023-05-15T17:04:07.742Z,0.73
2023-05-15T17:06:20.921Z,0.73
2023-05-15T17:08:30.544Z,0.57
2023-05-15T17:10:36.877Z,0.60
2023-05-15T17:12:48.556Z,0.32
2023-05-15T17:15:01.296Z,0.50
2023-05-15T17:17:12.482Z,0.60
2023-05-15T17:19:18.847Z,0.60
2023-05-15T17:21:23.067Z,0.47
2023-05-15T17:23:27.277Z,0.50
2023-05-15T17:25:28.740Z,0.38
2023-05-15T17:27:32.886Z,1.08
2023-05-15T17:29:37.042Z,0.68
2023-05-15T17:31:38.835Z,0.50
2023-05-15T17:33:40.492Z,0.40
2023-05-15T17:35:44.825Z,0.57
2023-05-15T17:37:46.262Z,0.55
2023-05-15T17:40:06.927Z,0.40
2023-05-15T17:42:08.505Z,0.57
2023-05-15T17:44:13.194Z,1.60
2023-05-15T17:46:17.629Z,0.55
2023-05-15T17:48:21.836Z,0.60
2023-05-15T17:50:23.332Z,0.60
2023-05-15T17:52:27.782Z,0.63
2023-05-15T17:54:32.506Z,1.05
2023-05-15T17:56:34.097Z,0.50
2023-05-15T17:58:35.793Z,1.05
2023-05-15T18:00:37.250Z,0.82
2023-05-15T18:02:38.753Z,0.70
2023-05-15T18:04:59.125Z,0.52
2023-05-15T18:07:00.668Z,0.70
2023-05-15T18:09:02.584Z,0.60
2023-05-15T18:11:14.254Z,0.65
2023-05-15T18:13:41.921Z,0.80
2023-05-15T18:15:43.428Z,0.70
2023-05-15T18:17:45.068Z,0.60
2023-05-15T18:19:49.537Z,0.60
2023-05-15T18:23:57.563Z,0.77
2023-05-15T18:26:01.953Z,0.25
2023-05-15T18:28:03.903Z,0.65
2023-05-15T18:30:08.387Z,0.60
2023-05-15T18:32:12.868Z,0.60
2023-05-15T18:34:14.464Z,0.82
2023-05-15T18:36:18.454Z,0.60
2023-05-15T18:38:22.709Z,1.23
2023-05-15T18:40:24.693Z,0.65
2023-05-15T18:42:44.776Z,0.55
2023-05-15T18:44:46.438Z,0.60
2023-05-15T18:46:47.987Z,0.63
2023-05-15T18:48:52.062Z,0.95
2023-05-15T18:50:54.165Z,0.70
2023-05-15T18:52:58.486Z,0.95
2023-05-15T18:55:01.353Z,0.93
2023-05-15T18:57:05.947Z,0.73
2023-05-15T18:59:10.480Z,0.65
2023-05-15T19:01:12.048Z,0.88
2023-05-15T19:03:16.573Z,0.80
2023-05-15T19:05:18.382Z,0.30
2023-05-15T19:07:20.018Z,0.82
2023-05-15T19:09:24.124Z,1.50
2023-05-15T19:11:26.351Z,0.65
2023-05-15T19:13:30.036Z,0.70
2023-05-15T19:15:34.134Z,1.23
2023-05-15T19:17:38.026Z,0.82
2023-05-15T19:19:42.708Z,0.90
2023-05-15T19:21:44.442Z,0.82
2023-05-15T19:23:49.370Z,0.77
2023-05-15T19:25:51.222Z,0.77
2023-05-15T19:27:52.913Z,0.93
2023-05-15T19:29:57.849Z,1.10
2023-05-15T19:32:03.081Z,1.10
2023-05-15T19:34:04.858Z,0.68
2023-05-15T19:36:06.310Z,0.80
2023-05-15T19:38:10.848Z,0.73
2023-05-15T19:40:30.914Z,1.00
2023-05-15T19:44:38.326Z,0.80
2023-05-15T19:46:40.310Z,0.73
2023-05-15T19:48:49.781Z,0.95
2023-05-15T19:51:02.424Z,0.77
2023-05-15T19:53:14.401Z,0.80
2023-05-15T19:55:27.545Z,0.70
2023-05-15T19:57:41.543Z,1.05
2023-05-15T20:00:10.051Z,1.00
2023-05-15T20:02:22.390Z,0.68
2023-05-15T20:04:31.755Z,0.85
2023-05-15T20:06:40.269Z,1.10
2023-05-15T20:08:48.496Z,0.80
2023-05-15T20:10:57.852Z,0.75
2023-05-15T20:13:13.245Z,0.93
2023-05-15T20:15:20.975Z,0.80
2023-05-15T20:17:30.088Z,0.75
2023-05-15T20:19:36.825Z,0.70
2023-05-15T20:21:39.022Z,0.63
2023-05-15T20:23:59.232Z,0.65
2023-05-15T20:26:01.138Z,0.90
2023-05-15T20:28:05.697Z,1.35
2023-05-15T20:30:09.987Z,0.70
2023-05-15T20:32:14.354Z,0.82
2023-05-15T20:34:16.040Z,0.90
2023-05-15T20:36:18.437Z,0.82
2023-05-15T20:38:21.807Z,0.95
2023-05-15T20:40:25.991Z,0.88
2023-05-15T20:42:28.437Z,0.73
2023-05-15T20:44:36.260Z,1.08
2023-05-15T20:46:40.883Z,0.68
2023-05-15T20:48:45.267Z,1.02
2023-05-15T20:52:51.473Z,0.77
2023-05-15T20:54:55.670Z,0.77
2023-05-15T20:57:00.037Z,0.73
2023-05-15T20:59:20.315Z,0.77
2023-05-15T21:01:24.987Z,0.75
2023-05-15T21:03:29.530Z,1.10
2023-05-15T21:05:34.014Z,0.60
2023-05-15T21:07:38.564Z,0.90
2023-05-15T21:09:40.006Z,0.75
2023-05-15T21:11:41.664Z,0.82
2023-05-15T21:13:46.052Z,0.63
2023-05-15T21:15:47.464Z,0.60
2023-05-15T21:17:49.004Z,0.75
2023-05-15T21:19:53.741Z,0.60
2023-05-15T21:21:55.364Z,0.95
2023-05-15T21:23:58.626Z,0.60
2023-05-15T21:26:00.050Z,0.65
2023-05-15T21:28:04.506Z,1.00
2023-05-15T21:30:24.941Z,0.60
2023-05-15T21:32:29.303Z,0.90
2023-05-15T21:34:30.967Z,0.85
2023-05-15T21:36:52.138Z,1.05
2023-05-15T21:38:56.511Z,0.60
2023-05-15T21:40:59.359Z,1.70
2023-05-15T21:43:19.593Z,0.70
2023-05-15T21:45:39.505Z,0.80
2023-05-15T21:47:44.288Z,0.60
2023-05-15T21:50:05.428Z,0.95
2023-05-15T21:52:09.909Z,0.90
2023-05-15T21:54:14.303Z,0.85
2023-05-15T21:56:15.829Z,0.82
2023-05-15T22:00:21.385Z,0.80
2023-05-15T22:02:22.928Z,0.95
2023-05-15T22:04:24.418Z,0.93
2023-05-15T22:06:28.681Z,0.65
2023-05-15T22:08:30.116Z,0.80
2023-05-15T22:10:31.990Z,1.00
2023-05-15T22:12:36.507Z,1.35
2023-05-15T22:14:44.192Z,0.90
2023-05-15T22:16:55.373Z,1.00
2023-05-15T22:18:59.920Z,1.48
2023-05-15T22:21:04.252Z,0.80
2023-05-15T22:23:08.781Z,1.30
2023-05-15T22:25:13.030Z,1.20
2023-05-15T22:27:16.646Z,2.85
2023-05-15T22:29:18.354Z,1.67
2023-05-15T22:31:22.921Z,1.20
2023-05-15T22:33:27.171Z,1.20
2023-05-15T22:35:29.977Z,1.05
2023-05-15T22:37:34.360Z,1.23
2023-05-15T22:39:38.774Z,1.25
2023-05-15T22:41:43.092Z,1.55
2023-05-15T22:43:47.624Z,1.30
2023-05-15T22:45:52.382Z,1.35
2023-05-15T22:48:03.202Z,1.20
2023-05-15T22:50:12.962Z,1.35
2023-05-15T22:52:21.693Z,1.50
2023-05-15T22:54:48.054Z,1.35
2023-05-15T22:57:12.053Z,2.13
2023-05-15T22:59:19.013Z,1.80
2023-05-15T23:01:43.293Z,1.63
2023-05-15T23:03:52.405Z,1.55
2023-05-15T23:06:31.841Z,1.33
2023-05-15T23:08:56.137Z,1.30
2023-05-15T23:11:01.829Z,1.50
2023-05-15T23:13:10.706Z,1.30
2023-05-15T23:15:19.557Z,1.23
2023-05-15T23:17:22.304Z,1.38
2023-05-15T23:19:25.080Z,2.25
2023-05-15T23:21:29.715Z,1.25
2023-05-15T23:23:33.849Z,1.10
2023-05-15T23:25:35.412Z,1.10
2023-05-15T23:27:39.661Z,1.20
2023-05-15T23:29:41.195Z,1.02
2023-05-15T23:31:45.891Z,0.93
2023-05-15T23:33:47.502Z,0.95
2023-05-15T23:35:48.940Z,1.67
2023-05-15T23:39:55.279Z,1.00
2023-05-15T23:41:56.794Z,1.10
2023-05-15T23:43:58.265Z,0.93
2023-05-15T23:45:59.697Z,0.93
2023-05-15T23:48:04.251Z,1.35
2023-05-15T23:50:08.658Z,1.30
2023-05-15T23:52:28.789Z,0.80
2023-05-15T23:54:30.183Z,0.73
2023-05-15T23:56:31.830Z,0.85
2023-05-15T23:58:51.596Z,0.60
